Time;durP1;ratioP1;P1;durP2;ratioP2;P2;SDS_P1;SDS_P2;PMS_P1;PMS_P2;Temp;Humidity;BMP_temperature;BMP_pressure;BME280_temperature;BME280_humidity;BME280_pressure;Samples;Min_cycle;Max_cycle;Signal;HPM_P1;HPM_P2
2022/02/14 00:02:13;;;;;;;109.50;39.70;;;;;;;-3.21;61.26;98612.88;105721;1280;137922;-70
2022/02/14 00:04:41;;;;;;;78.80;30.30;;;;;;;-3.26;63.15;98613.98;105858;1280;22548;-70
2022/02/14 00:07:08;;;;;;;47.80;19.80;;;;;;;-3.30;62.43;98607.66;105754;1280;23920;-70
2022/02/14 00:09:35;;;;;;;60.70;23.10;;;;;;;-3.34;62.03;98609.85;105627;1281;137810;-70
2022/02/14 00:12:03;;;;;;;64.90;24.30;;;;;;;-3.36;63.23;98598.88;105657;1282;24426;-70
2022/02/14 00:14:30;;;;;;;61.80;22.50;;;;;;;-3.38;63.35;98598.56;105599;1279;138438;-70
2022/02/14 00:16:57;;;;;;;70.40;27.50;;;;;;;-3.43;65.37;98597.76;105813;1280;23197;-70
2022/02/14 00:19:24;;;;;;;79.00;31.40;;;;;;;-3.51;65.81;98598.55;105701;1280;138105;-70
2022/02/14 00:21:51;;;;;;;52.60;22.40;;;;;;;-3.57;66.10;98602.87;105941;1280;24368;-70
2022/02/14 00:24:18;;;;;;;86.90;36.70;;;;;;;-3.60;65.72;98601.59;105855;1279;22576;-70
2022/02/14 00:26:47;;;;;;;73.10;30.60;;;;;;;-3.62;66.95;98602.48;105606;1280;138371;-70
2022/02/14 00:29:16;;;;;;;52.40;21.30;;;;;;;-3.60;66.82;98602.36;105876;1281;22577;-70
2022/02/14 00:31:43;;;;;;;49.80;19.90;;;;;;;-3.57;66.59;98598.48;105676;1281;138301;-70
2022/02/14 00:34:10;;;;;;;43.60;17.70;;;;;;;-3.53;65.68;98600.92;105785;1281;25343;-70
2022/02/14 00:36:37;;;;;;;40.80;15.60;;;;;;;-3.49;65.32;98592.55;105781;1280;22550;-70
2022/02/14 00:39:04;;;;;;;40.90;15.80;;;;;;;-3.49;65.58;98586.70;105813;1280;138852;-70
2022/02/14 00:41:31;;;;;;;36.10;15.20;;;;;;;-3.48;65.19;98580.48;106066;1279;22639;-70
2022/02/14 00:44:12;;;;;;;35.20;12.80;;;;;;;-3.48;65.40;98575.55;105663;1280;138482;-70
2022/02/14 00:46:40;;;;;;;33.30;12.90;;;;;;;-3.47;65.24;98571.06;105998;1280;25529;-70
2022/02/14 00:49:07;;;;;;;36.50;13.80;;;;;;;-3.48;65.75;98568.44;105970;1281;24293;-70
2022/02/14 00:51:35;;;;;;;33.30;13.70;;;;;;;-3.49;66.01;98566.63;105828;1281;139283;-70
2022/02/14 00:54:04;;;;;;;35.60;13.00;;;;;;;-3.50;66.15;98568.31;105939;1281;22550;-70
2022/02/14 00:56:31;;;;;;;38.90;13.70;;;;;;;-3.50;66.37;98562.63;105848;1281;137921;-70
2022/02/14 00:58:58;;;;;;;31.40;12.00;;;;;;;-3.51;66.75;98562.58;105937;1280;25245;-70
2022/02/14 01:01:25;;;;;;;77.00;30.60;;;;;;;-3.54;67.29;98563.02;105751;1280;138151;-70
2022/02/14 01:03:52;;;;;;;69.50;28.20;;;;;;;-3.61;68.04;98557.86;105873;1280;22600;-70
2022/02/14 01:06:19;;;;;;;57.30;22.60;;;;;;;-3.68;68.94;98558.15;105991;1280;25555;-70
2022/02/14 01:08:47;;;;;;;43.70;17.80;;;;;;;-3.72;68.75;98551.70;105789;1280;138487;-70
2022/02/14 01:11:14;;;;;;;66.60;26.10;;;;;;;-3.73;68.64;98547.91;105924;1281;25368;-70
2022/02/14 01:13:41;;;;;;;56.50;22.60;;;;;;;-3.74;69.68;98541.61;105882;1280;138519;-70
2022/02/14 01:16:09;;;;;;;55.40;22.60;;;;;;;-3.74;70.37;98542.11;105910;1278;24322;-70
2022/02/14 01:18:35;;;;;;;50.40;21.10;;;;;;;-3.73;70.63;98537.38;105705;1280;22586;-70
2022/02/14 01:21:03;;;;;;;43.20;16.70;;;;;;;-3.71;71.18;98533.16;105782;1280;138351;-70
2022/02/14 01:23:30;;;;;;;35.00;16.30;;;;;;;-3.70;70.83;98529.32;106050;1280;22569;-70
2022/02/14 01:25:57;;;;;;;29.50;14.00;;;;;;;-3.69;70.63;98517.67;105886;1280;138377;-70
2022/02/14 01:28:24;;;;;;;32.80;14.80;;;;;;;-3.67;70.24;98520.45;105919;1280;22675;-70
2022/02/14 01:30:51;;;;;;;30.60;14.20;;;;;;;-3.65;70.23;98522.80;105782;1281;25454;-69
2022/02/14 01:33:18;;;;;;;39.00;15.50;;;;;;;-3.64;69.93;98521.83;105840;1281;137815;-70
2022/02/14 01:35:46;;;;;;;41.40;17.90;;;;;;;-3.66;70.42;98523.16;105857;1281;25275;-70
2022/02/14 01:38:13;;;;;;;45.40;18.90;;;;;;;-3.67;70.88;98525.92;105696;1280;138064;-70
2022/02/14 01:40:40;;;;;;;38.30;17.00;;;;;;;-3.68;70.89;98520.59;105986;1280;25334;-70
2022/02/14 01:43:07;;;;;;;37.30;15.60;;;;;;;-3.70;71.10;98515.80;106050;1280;24971;-70
2022/02/14 01:45:34;;;;;;;56.50;24.20;;;;;;;-3.73;71.20;98512.40;105838;1281;137745;-70
2022/02/14 01:48:01;;;;;;;54.40;23.60;;;;;;;-3.76;72.14;98512.86;105953;1281;22573;-70
2022/02/14 01:50:28;;;;;;;59.30;25.70;;;;;;;-3.78;73.08;98510.98;105947;1281;138351;-70
2022/02/14 01:52:56;;;;;;;64.20;26.00;;;;;;;-3.82;73.25;98505.05;105698;1281;22711;-69
2022/02/14 01:55:23;;;;;;;54.40;22.00;;;;;;;-3.80;73.33;98501.21;106064;1281;22590;-70
2022/02/14 01:57:50;;;;;;;44.70;19.20;;;;;;;-3.78;73.35;98499.80;105866;1280;137571;-72
2022/02/14 02:00:19;;;;;;;39.30;16.70;;;;;;;-3.76;73.60;98490.38;106157;1280;23763;-70
2022/02/14 02:02:47;;;;;;;36.80;15.70;;;;;;;-3.73;73.27;98491.46;105850;1280;137654;-70
2022/02/14 02:05:14;;;;;;;45.20;17.30;;;;;;;-3.73;72.78;98486.45;105919;1280;22547;-69
2022/02/14 02:07:41;;;;;;;52.80;20.90;;;;;;;-3.74;73.14;98483.54;105919;1280;138059;-70
2022/02/14 02:10:12;;;;;;;41.90;19.30;;;;;;;-3.76;73.76;98479.34;105882;1281;23947;-70
2022/02/14 02:12:55;;;;;;;40.40;18.50;;;;;;;-3.77;73.88;98475.73;105907;1281;22587;-72
2022/02/14 02:15:25;;;;;;;36.90;16.00;;;;;;;-3.78;73.82;98475.96;105789;1281;138908;-70
2022/02/14 02:18:06;;;;;;;60.00;24.10;;;;;;;-3.75;74.34;98477.30;105870;1281;25528;-70
2022/02/14 02:20:35;;;;;;;64.10;25.50;;;;;;;-3.76;74.82;98478.50;105867;1280;138269;-70
2022/02/14 02:23:03;;;;;;;53.60;22.30;;;;;;;-3.78;74.71;98475.67;106140;1280;22564;-70
2022/02/14 02:25:30;;;;;;;63.50;23.30;;;;;;;-3.83;75.24;98473.60;105955;1280;138863;-70
2022/02/14 02:27:56;;;;;;;57.50;24.40;;;;;;;-3.87;75.30;98466.44;105846;1280;22553;-70
2022/02/14 02:30:24;;;;;;;50.70;22.20;;;;;;;-3.89;76.08;98464.48;106137;1281;25386;-70
2022/02/14 02:32:52;;;;;;;45.10;20.00;;;;;;;-3.90;75.75;98458.33;105760;1281;138570;-70
2022/02/14 02:35:19;;;;;;;34.30;15.50;;;;;;;-3.88;75.59;98461.38;105858;1281;22560;-70
2022/02/14 02:37:46;;;;;;;46.10;18.40;;;;;;;-3.83;75.39;98459.48;105665;1281;138102;-70
2022/02/14 02:40:13;;;;;;;41.50;17.10;;;;;;;-3.81;75.75;98461.39;106029;1280;22554;-70
2022/02/14 02:42:41;;;;;;;38.20;15.10;;;;;;;-3.78;75.95;98457.54;105932;1280;24241;-70
2022/02/14 02:45:09;;;;;;;35.20;15.10;;;;;;;-3.74;75.62;98456.27;105822;1280;138117;-70
2022/02/14 02:47:36;;;;;;;30.80;15.70;;;;;;;-3.70;75.36;98450.91;106304;1280;22551;-70
2022/02/14 02:50:04;;;;;;;32.90;15.30;;;;;;;-3.68;75.26;98448.34;105915;1280;137944;-70
2022/02/14 02:52:32;;;;;;;35.40;13.60;;;;;;;-3.64;74.83;98449.16;106042;1281;22570;-70
2022/02/14 02:54:58;;;;;;;38.00;14.10;;;;;;;-3.60;74.78;98442.64;105939;1281;22755;-70
2022/02/14 02:57:26;;;;;;;30.20;13.30;;;;;;;-3.57;74.58;98438.77;105728;1281;137870;-70
2022/02/14 02:59:54;;;;;;;34.20;14.70;;;;;;;-3.54;74.33;98437.55;105766;1280;25266;-70
2022/02/14 03:02:21;;;;;;;38.30;15.30;;;;;;;-3.49;74.32;98436.33;106019;1280;138370;-70
2022/02/14 03:04:49;;;;;;;30.10;13.90;;;;;;;-3.42;73.94;98436.58;105970;1280;24442;-70
2022/02/14 03:07:16;;;;;;;35.40;14.10;;;;;;;-3.36;73.81;98444.23;105958;1281;22785;-70
2022/02/14 03:09:43;;;;;;;34.30;14.60;;;;;;;-3.31;73.59;98443.03;105984;1280;138191;-70
2022/02/14 03:12:11;;;;;;;37.20;14.30;;;;;;;-3.28;73.81;98442.16;105775;1281;22860;-70
2022/02/14 03:14:39;;;;;;;33.30;15.20;;;;;;;-3.25;73.74;98443.70;105635;1281;139492;-70
2022/02/14 03:17:10;;;;;;;30.50;13.60;;;;;;;-3.25;73.41;98441.02;105787;1281;22570;-70
2022/02/14 03:19:37;;;;;;;33.80;13.30;;;;;;;-3.25;73.48;98442.20;105666;1281;138018;-70
2022/02/14 03:22:05;;;;;;;32.80;14.20;;;;;;;-3.26;73.61;98440.71;105833;1283;22542;-70
2022/02/14 03:24:32;;;;;;;38.10;14.60;;;;;;;-3.26;73.42;98440.04;105862;1280;25088;-70
2022/02/14 03:26:59;;;;;;;29.00;14.40;;;;;;;-3.26;73.34;98443.05;106015;1280;138798;-70
2022/02/14 03:29:27;;;;;;;30.40;13.10;;;;;;;-3.24;73.40;98439.32;105947;1280;23975;-70
2022/02/14 03:31:54;;;;;;;33.30;14.70;;;;;;;-3.20;73.12;98439.14;105720;1281;137766;-70
2022/02/14 03:34:22;;;;;;;34.60;13.80;;;;;;;-3.18;73.01;98437.25;105926;1281;25333;-70
2022/02/14 03:36:49;;;;;;;29.20;14.40;;;;;;;-3.13;73.59;98437.65;106059;1281;25385;-70
2022/02/14 03:39:16;;;;;;;26.50;11.30;;;;;;;-3.11;73.13;98439.39;105697;1281;138068;-70
2022/02/14 03:41:43;;;;;;;36.90;16.20;;;;;;;-3.12;73.53;98435.98;105907;1280;22576;-70
2022/02/14 03:44:10;;;;;;;38.80;17.90;;;;;;;-3.27;73.64;98443.89;105752;1280;137850;-70
2022/02/14 03:46:39;;;;;;;36.60;16.20;;;;;;;-3.38;74.46;98442.48;106207;1280;23006;-70
2022/02/14 03:49:19;;;;;;;32.70;14.90;;;;;;;-3.41;74.67;98439.28;105954;1280;22780;-70
2022/02/14 03:52:00;;;;;;;27.70;14.00;;;;;;;-3.41;74.65;98441.54;105760;1280;138355;-70
2022/02/14 03:54:27;;;;;;;27.20;12.30;;;;;;;-3.36;74.41;98441.44;105941;1281;22691;-70
2022/02/14 03:57:08;;;;;;;32.50;14.00;;;;;;;-3.37;74.91;98441.17;105755;1281;137686;-70
2022/02/14 03:59:35;;;;;;;36.50;14.20;;;;;;;-3.49;75.64;98448.77;105953;1280;25327;-70
2022/02/14 04:02:03;;;;;;;33.40;15.20;;;;;;;-3.55;76.01;98442.14;105901;1280;138032;-70
2022/02/14 04:04:30;;;;;;;33.70;15.40;;;;;;;-3.56;76.42;98437.91;105963;1280;22665;-72
2022/02/14 04:06:57;;;;;;;32.80;15.00;;;;;;;-3.56;75.99;98444.90;105963;1280;25257;-71
2022/02/14 04:09:24;;;;;;;40.50;18.50;;;;;;;-3.63;75.69;98440.59;105662;1280;137746;-70
2022/02/14 04:12:05;;;;;;;36.80;16.60;;;;;;;-3.69;75.94;98433.77;105843;1281;22538;-70
2022/02/14 04:14:32;;;;;;;36.60;16.40;;;;;;;-3.68;76.63;98431.52;105523;1281;138510;-71
2022/02/14 04:16:59;;;;;;;32.70;14.70;;;;;;;-3.64;76.55;98424.86;105623;1281;25377;-70
2022/02/14 04:19:26;;;;;;;33.00;13.70;;;;;;;-3.58;76.31;98425.21;105837;1281;23549;-71
2022/02/14 04:21:53;;;;;;;28.20;13.80;;;;;;;-3.54;76.18;98422.79;105589;1281;137688;-71
2022/02/14 04:24:20;;;;;;;29.60;13.20;;;;;;;-3.49;76.40;98428.88;105777;1279;23440;-71
2022/02/14 04:26:47;;;;;;;31.60;13.50;;;;;;;-3.48;75.83;98425.42;105692;1281;138074;-70
2022/02/14 04:29:28;;;;;;;28.40;11.80;;;;;;;-3.49;76.05;98426.98;105963;1281;22707;-69
2022/02/14 04:31:55;;;;;;;22.60;10.90;;;;;;;-3.52;75.99;98425.10;105760;1280;138953;-69
2022/02/14 04:34:22;;;;;;;42.80;16.30;;;;;;;-3.53;76.83;98426.68;105777;1281;22564;-69
2022/02/14 04:36:52;;;;;;;36.40;14.90;;;;;;;-3.55;77.05;98426.48;105990;1281;22572;-69
2022/02/14 04:39:19;;;;;;;31.20;14.00;;;;;;;-3.54;77.19;98421.25;105930;1281;138621;-69
2022/02/14 04:41:47;;;;;;;33.80;13.70;;;;;;;-3.50;77.04;98419.95;105857;1281;22553;-70
2022/02/14 04:44:14;;;;;;;28.50;13.00;;;;;;;-3.47;76.53;98417.48;105763;1281;138790;-70
2022/02/14 04:46:42;;;;;;;31.00;13.90;;;;;;;-3.42;76.73;98415.81;106079;1281;25213;-70
2022/02/14 04:49:09;;;;;;;27.70;14.10;;;;;;;-3.37;76.46;98415.67;105957;1280;22669;-70
2022/02/14 04:51:36;;;;;;;38.70;16.40;;;;;;;-3.39;76.63;98415.06;105804;1281;137844;-72
2022/02/14 04:54:04;;;;;;;33.70;13.90;;;;;;;-3.45;76.66;98414.80;105855;1281;23934;-71
2022/02/14 04:56:31;;;;;;;34.90;15.10;;;;;;;-3.50;77.46;98414.83;105799;1281;137666;-70
2022/02/14 04:58:58;;;;;;;32.80;14.40;;;;;;;-3.55;77.38;98409.63;105849;1281;26024;-70
2022/02/14 05:01:25;;;;;;;29.10;14.40;;;;;;;-3.56;77.66;98409.73;105885;1281;25341;-70
2022/02/14 05:03:52;;;;;;;26.60;13.60;;;;;;;-3.54;77.37;98405.61;105940;1281;138481;-69
2022/02/14 05:06:21;;;;;;;25.70;11.90;;;;;;;-3.49;77.72;98409.38;105740;1281;25377;-69
2022/02/14 05:08:48;;;;;;;24.90;11.40;;;;;;;-3.45;77.39;98406.30;105908;1281;137571;-69
2022/02/14 05:11:15;;;;;;;29.50;11.90;;;;;;;-3.39;76.91;98405.70;105972;1280;22830;-70
2022/02/14 05:13:56;;;;;;;26.20;11.70;;;;;;;-3.32;77.06;98407.68;105883;1280;137814;-69
2022/02/14 05:16:24;;;;;;;31.80;13.90;;;;;;;-3.29;76.84;98406.57;105917;1281;22701;-70
2022/02/14 05:18:53;;;;;;;38.90;16.20;;;;;;;-3.28;76.98;98407.94;105812;1281;22736;-70
2022/02/14 05:21:34;;;;;;;36.80;14.90;;;;;;;-3.31;76.93;98409.08;105733;1281;137600;-70
2022/02/14 05:24:01;;;;;;;26.40;12.40;;;;;;;-3.33;76.72;98407.91;105910;1281;25273;-70
2022/02/14 05:26:28;;;;;;;24.00;13.50;;;;;;;-3.34;76.60;98408.54;105644;1281;138091;-70
2022/02/14 05:28:55;;;;;;;29.20;13.10;;;;;;;-3.33;76.75;98410.41;106088;1280;24323;-70
2022/02/14 05:31:23;;;;;;;26.30;12.60;;;;;;;-3.31;76.70;98415.41;105904;1281;25261;-70
2022/02/14 05:33:50;;;;;;;28.70;12.40;;;;;;;-3.28;76.49;98412.90;105800;1281;137697;-70
2022/02/14 05:36:19;;;;;;;24.60;12.60;;;;;;;-3.26;76.47;98415.70;105973;1281;25330;-70
2022/02/14 05:38:46;;;;;;;37.60;15.40;;;;;;;-3.27;76.54;98417.02;105879;1281;138490;-70
2022/02/14 05:41:14;;;;;;;37.60;15.50;;;;;;;-3.28;76.70;98417.49;105900;1281;25271;-70
2022/02/14 05:43:42;;;;;;;43.80;18.00;;;;;;;-3.31;77.34;98415.64;105482;1281;137816;-70
2022/02/14 05:46:13;;;;;;;36.90;17.60;;;;;;;-3.36;77.34;98419.77;105852;1280;22552;-70
2022/02/14 05:48:47;;;;;;;39.10;16.70;;;;;;;-3.41;77.69;98414.98;105656;1281;22569;-70
2022/02/14 05:51:15;;;;;;;27.60;13.30;;;;;;;-3.42;77.82;98419.51;105616;1281;25269;-70
2022/02/14 05:53:44;;;;;;;29.40;13.20;;;;;;;-3.40;77.71;98420.44;105706;1281;24270;-70
2022/02/14 05:56:14;;;;;;;44.40;19.10;;;;;;;-3.38;77.76;98424.81;105717;1281;22541;-70
2022/02/14 05:58:44;;;;;;;39.20;18.00;;;;;;;-3.38;77.45;98424.47;105787;1281;25462;-70
2022/02/14 06:01:11;;;;;;;32.50;15.70;;;;;;;-3.37;78.04;98426.83;105660;1280;24336;-70
2022/02/14 06:03:39;;;;;;;28.40;14.20;;;;;;;-3.35;77.62;98429.46;105825;1281;22538;-70
2022/02/14 06:06:06;;;;;;;29.30;14.20;;;;;;;-3.32;77.29;98429.35;105714;1281;22583;-71
2022/02/14 06:08:33;;;;;;;32.70;14.10;;;;;;;-3.30;77.47;98423.80;105864;1281;22562;-70
2022/02/14 06:11:02;;;;;;;31.70;14.50;;;;;;;-3.29;77.55;98428.46;105851;1280;23951;-70
2022/02/14 06:13:29;;;;;;;30.60;13.90;;;;;;;-3.27;77.19;98429.08;105855;1281;23062;-70
2022/02/14 06:15:57;;;;;;;44.20;20.30;;;;;;;-3.23;77.06;98427.90;105901;1281;25103;-70
2022/02/14 06:18:24;;;;;;;51.30;23.20;;;;;;;-3.21;76.75;98431.94;105789;1281;25437;-70
2022/02/14 06:20:51;;;;;;;59.60;25.20;;;;;;;-3.24;76.84;98427.36;105847;1281;22559;-70
2022/02/14 06:23:18;;;;;;;54.40;25.10;;;;;;;-3.28;76.62;98432.94;105671;1281;22567;-70
2022/02/14 06:25:45;;;;;;;49.00;22.10;;;;;;;-3.31;76.95;98428.16;105727;1281;22612;-70
2022/02/14 06:28:12;;;;;;;46.70;21.70;;;;;;;-3.31;77.14;98426.56;105999;1281;23710;-70
2022/02/14 06:30:40;;;;;;;41.50;20.10;;;;;;;-3.31;77.67;98429.55;105806;1280;25380;-70
2022/02/14 06:33:07;;;;;;;42.80;19.20;;;;;;;-3.28;77.80;98426.08;105755;1281;24326;-70
2022/02/14 06:35:34;;;;;;;39.00;18.60;;;;;;;-3.26;77.67;98425.11;105938;1281;22579;-70
2022/02/14 06:38:01;;;;;;;30.10;17.20;;;;;;;-3.21;77.93;98423.42;105736;1281;22557;-70
2022/02/14 06:40:28;;;;;;;41.60;18.20;;;;;;;-3.14;77.79;98424.26;105768;1280;22575;-71
2022/02/14 06:42:55;;;;;;;32.40;16.10;;;;;;;-3.07;77.76;98423.20;105799;1281;22576;-71
2022/02/14 06:45:22;;;;;;;35.70;16.50;;;;;;;-3.00;77.95;98420.23;105814;1281;22561;-71
2022/02/14 06:47:49;;;;;;;38.40;15.20;;;;;;;-2.94;77.87;98419.35;105771;1281;26072;-71
2022/02/14 06:50:17;;;;;;;33.40;15.40;;;;;;;-2.86;77.68;98418.89;105985;1279;23973;-72
2022/02/14 06:52:45;;;;;;;46.20;22.30;;;;;;;-2.79;77.30;98415.69;105773;1281;22579;-70
2022/02/14 06:55:12;;;;;;;56.80;26.00;;;;;;;-2.76;77.75;98418.36;105881;1280;24370;-70
2022/02/14 06:57:39;;;;;;;59.40;27.10;;;;;;;-2.77;77.14;98420.22;105879;1280;22577;-72
2022/02/14 07:00:10;;;;;;;73.70;34.50;;;;;;;-2.83;77.50;98419.97;105901;1280;26469;-70
2022/02/14 07:02:37;;;;;;;72.50;33.70;;;;;;;-2.88;77.74;98421.58;105937;1281;25255;-70
2022/02/14 07:05:06;;;;;;;65.80;29.60;;;;;;;-2.88;77.78;98426.38;106139;1280;22577;-70
2022/02/14 07:07:34;;;;;;;;;;;;;;;-2.82;77.97;98427.20;105990;1280;22704;-70
2022/02/14 07:10:01;;;;;;;54.20;23.80;;;;;;;-2.75;78.19;98429.34;105814;1281;22877;-72
2022/02/14 07:12:29;;;;;;;51.30;22.30;;;;;;;-2.69;78.16;98424.89;105962;1281;22582;-70
2022/02/14 07:14:56;;;;;;;48.20;23.30;;;;;;;-2.62;78.42;98427.36;105936;1281;22590;-70
2022/02/14 07:17:23;;;;;;;49.50;23.80;;;;;;;-2.54;78.73;98427.10;105948;1280;25251;-71
2022/02/14 07:19:50;;;;;;;49.50;23.40;;;;;;;-2.46;78.90;98416.98;105793;1281;22577;-70
2022/02/14 07:22:17;;;;;;;52.50;21.00;;;;;;;-2.38;79.07;98417.38;106024;1281;24268;-70
2022/02/14 07:24:44;;;;;;;40.00;18.00;;;;;;;-2.27;78.90;98411.60;106165;1279;22742;-70
2022/02/14 07:27:11;;;;;;;38.20;17.40;;;;;;;-2.13;78.69;98413.87;105993;1280;22607;-70
2022/02/14 07:29:38;;;;;;;35.80;16.10;;;;;;;-2.00;78.49;98417.39;105795;1280;22607;-70
2022/02/14 07:32:05;;;;;;;34.90;17.50;;;;;;;-1.86;78.44;98410.60;105992;1280;22563;-70
2022/02/14 07:34:32;;;;;;;38.00;15.70;;;;;;;-1.73;78.16;98407.95;105997;1279;22838;-70
2022/02/14 07:37:02;;;;;;;37.40;16.90;;;;;;;-1.63;77.89;98405.02;105722;1281;22716;-70
2022/02/14 07:39:30;;;;;;;33.30;16.40;;;;;;;-1.53;77.74;98401.27;105853;1281;22574;-70
2022/02/14 07:41:59;;;;;;;36.20;17.00;;;;;;;-1.43;77.20;98398.29;105878;1281;25474;-70
2022/02/14 07:44:29;;;;;;;33.70;16.10;;;;;;;-1.34;76.87;98401.99;106064;1279;24231;-70
2022/02/14 07:46:56;;;;;;;32.30;15.00;;;;;;;-1.23;76.67;98404.58;106143;1280;24367;-70
2022/02/14 07:49:23;;;;;;;31.40;15.40;;;;;;;-1.14;76.31;98404.39;105903;1279;22550;-70
2022/02/14 07:51:50;;;;;;;31.90;15.50;;;;;;;-1.03;76.32;98405.55;105879;1281;22552;-70
2022/02/14 07:54:17;;;;;;;35.10;15.70;;;;;;;-0.93;76.13;98406.02;105897;1280;24380;-70
2022/02/14 07:56:45;;;;;;;29.80;15.10;;;;;;;-0.83;75.93;98406.52;106222;1279;24018;-70
2022/02/14 07:59:12;;;;;;;60.80;27.60;;;;;;;-0.74;75.47;98404.98;106023;1279;25281;-70
2022/02/14 08:01:40;;;;;;;108.40;47.30;;;;;;;-0.67;76.86;98403.04;106056;1279;24289;-70
2022/02/14 08:04:07;;;;;;;96.10;40.80;;;;;;;-0.61;77.03;98403.61;106153;1279;24429;-70
2022/02/14 08:06:37;;;;;;;55.80;24.20;;;;;;;-0.52;76.88;98401.02;105882;1280;22550;-72
2022/02/14 08:09:05;;;;;;;80.20;33.60;;;;;;;-0.42;76.64;98395.42;105877;1279;25370;-72
2022/02/14 08:11:33;;;;;;;52.80;24.30;;;;;;;-0.32;76.62;98398.04;105958;1280;22739;-70
2022/02/14 08:14:01;;;;;;;67.40;29.40;;;;;;;-0.20;76.89;98394.67;105822;1281;22570;-72
2022/02/14 08:16:30;;;;;;;73.90;31.90;;;;;;;-0.11;77.03;98396.33;105805;1280;22557;-72
2022/02/14 08:19:01;;;;;;;59.60;27.80;;;;;;;-0.03;77.23;98397.95;105862;1280;24371;-70
2022/02/14 08:21:34;;;;;;;67.90;28.50;;;;;;;0.04;77.28;98397.79;105893;1279;26725;-69
2022/02/14 08:24:04;;;;;;;61.60;28.30;;;;;;;0.13;76.79;98395.52;105892;1279;25333;-70
2022/02/14 08:26:38;;;;;;;65.40;29.30;;;;;;;0.20;76.51;98394.31;105834;1280;22702;-72
2022/02/14 08:29:05;;;;;;;62.70;28.40;;;;;;;0.29;76.56;98397.89;105828;1280;22576;-70
2022/02/14 08:31:32;;;;;;;60.40;27.50;;;;;;;0.37;76.35;98396.77;105837;1280;22586;-71
2022/02/14 08:33:59;;;;;;;57.80;27.20;;;;;;;0.48;76.16;98398.89;105854;1280;25456;-70
2022/02/14 08:36:27;;;;;;;51.90;24.90;;;;;;;0.61;76.14;98393.31;106032;1279;22585;-70
2022/02/14 08:38:54;;;;;;;51.70;23.90;;;;;;;0.73;75.83;98387.61;105785;1279;22556;-70
2022/02/14 08:41:21;;;;;;;49.60;22.10;;;;;;;0.85;75.10;98385.02;106196;1279;23675;-70
2022/02/14 08:43:50;;;;;;;42.00;18.70;;;;;;;0.97;74.51;98385.25;106223;1281;23934;-70
2022/02/14 08:46:20;;;;;;;38.40;18.40;;;;;;;1.08;73.80;98383.52;106137;1279;25264;-70
2022/02/14 08:48:48;;;;;;;35.20;15.70;;;;;;;1.20;73.00;98380.70;106071;1280;22606;-70
2022/02/14 08:51:17;;;;;;;36.80;17.30;;;;;;;1.30;72.58;98383.91;106260;1280;24253;-70
2022/02/14 08:53:49;;;;;;;28.20;15.70;;;;;;;1.40;72.20;98378.55;105813;1280;22563;-70
2022/02/14 08:56:17;;;;;;;29.30;15.80;;;;;;;1.51;71.65;98373.52;106017;1280;23006;-70
2022/02/14 08:58:45;;;;;;;33.90;16.50;;;;;;;1.60;71.30;98370.27;106070;1279;25348;-70
2022/02/14 09:01:13;;;;;;;31.10;16.40;;;;;;;1.70;70.99;98368.23;105779;1281;22698;-70
2022/02/14 09:03:40;;;;;;;32.80;17.50;;;;;;;1.80;70.77;98370.95;105947;1279;22553;-70
2022/02/14 09:06:09;;;;;;;34.80;15.40;;;;;;;1.89;70.55;98366.77;105760;1281;22558;-70
2022/02/14 09:08:36;;;;;;;30.20;15.20;;;;;;;1.98;70.36;98367.80;106245;1280;25252;-70
2022/02/14 09:11:04;;;;;;;29.90;15.60;;;;;;;2.07;70.01;98369.00;105777;1280;24216;-70
2022/02/14 09:13:36;;;;;;;31.50;16.30;;;;;;;2.18;69.76;98359.10;106106;1281;22581;-70
2022/02/14 09:16:05;;;;;;;34.10;16.80;;;;;;;2.28;69.62;98359.64;105889;1280;24262;-70
2022/02/14 09:18:41;;;;;;;24.70;13.70;;;;;;;2.38;69.40;98359.23;106064;1280;25243;-70
2022/02/14 09:21:32;;;;;;;28.00;14.30;;;;;;;2.51;69.08;98353.83;105901;1281;23817;-70
2022/02/14 09:23:59;;;;;;;27.30;14.90;;;;;;;2.62;68.71;98350.46;105854;1281;24293;-72
2022/02/14 09:26:28;;;;;;;30.70;15.30;;;;;;;2.71;68.33;98351.80;105897;1281;25342;-71
2022/02/14 09:28:59;;;;;;;31.80;14.80;;;;;;;2.82;68.08;98354.98;105856;1280;22566;-73
2022/02/14 09:31:43;;;;;;;23.30;12.70;;;;;;;2.95;67.76;98348.73;105732;1281;22580;-72
2022/02/14 09:34:11;;;;;;;29.40;14.10;;;;;;;3.06;67.77;98347.84;105943;1280;22611;-72
2022/02/14 09:36:38;;;;;;;20.10;12.00;;;;;;;3.18;67.42;98346.30;105787;1281;25376;-70
2022/02/14 09:39:08;;;;;;;26.00;13.10;;;;;;;3.29;66.95;98345.04;105798;1281;24254;-70
2022/02/14 09:41:39;;;;;;;25.80;12.80;;;;;;;3.41;66.38;98342.02;105850;1280;24264;-70
2022/02/14 09:44:07;;;;;;;28.10;14.40;;;;;;;3.53;66.32;98338.83;105781;1281;22572;-70
2022/02/14 09:46:37;;;;;;;27.00;14.30;;;;;;;3.66;66.08;98335.38;105870;1281;26518;-70
2022/02/14 09:49:05;;;;;;;27.50;13.60;;;;;;;3.77;65.69;98333.30;105715;1280;22704;-71
2022/02/14 09:51:35;;;;;;;27.70;13.70;;;;;;;3.88;65.20;98328.46;105623;1280;395303;-71
2022/02/14 09:54:05;;;;;;;24.00;12.40;;;;;;;4.00;64.92;98327.98;105928;1280;25313;-70
2022/02/14 09:56:35;;;;;;;22.40;12.30;;;;;;;4.10;64.58;98326.73;105945;1279;25323;-70
2022/02/14 09:59:05;;;;;;;23.90;11.50;;;;;;;4.22;64.07;98325.74;105836;1280;24418;-71
2022/02/14 10:01:33;;;;;;;24.00;12.50;;;;;;;4.32;63.61;98327.28;105797;1281;23399;-71
2022/02/14 10:04:01;;;;;;;22.00;11.60;;;;;;;4.43;63.31;98324.65;105821;1281;22563;-71
2022/02/14 10:06:35;;;;;;;25.70;13.00;;;;;;;4.54;63.07;98322.63;105808;1281;25293;-71
2022/02/14 10:09:18;;;;;;;23.50;10.20;;;;;;;4.67;62.65;98324.84;105831;1280;22717;-71
2022/02/14 10:12:08;;;;;;;21.30;11.90;;;;;;;4.79;62.18;98325.44;105866;1280;23963;-70
2022/02/14 10:14:36;;;;;;;18.60;10.40;;;;;;;4.91;61.92;98327.36;106072;1280;22708;-71
2022/02/14 10:17:08;;;;;;;17.90;10.40;;;;;;;5.01;61.20;98325.75;106262;1280;25312;-71
2022/02/14 10:19:40;;;;;;;18.70;10.60;;;;;;;5.13;61.17;98324.69;105823;1280;25324;-71
2022/02/14 10:22:09;;;;;;;16.90;10.00;;;;;;;5.24;60.83;98323.84;105860;1279;25486;-73
2022/02/14 10:24:41;;;;;;;20.90;11.00;;;;;;;5.35;60.62;98325.88;106004;1281;22687;-72
2022/02/14 10:27:09;;;;;;;17.00;10.00;;;;;;;5.45;60.19;98311.83;105872;1281;22620;-72
2022/02/14 10:29:37;;;;;;;18.70;10.80;;;;;;;5.56;60.20;98307.45;105871;1280;22806;-72
2022/02/14 10:32:16;;;;;;;21.50;10.00;;;;;;;5.66;59.83;98302.25;105730;1280;22586;-72
2022/02/14 10:34:49;;;;;;;19.00;10.40;;;;;;;5.77;59.54;98299.30;105949;1280;22551;-72
2022/02/14 10:37:18;;;;;;;20.70;10.80;;;;;;;5.87;58.97;98293.11;105901;1280;24325;-72
2022/02/14 10:39:59;;;;;;;20.90;11.50;;;;;;;5.98;58.51;98288.59;106056;1280;25058;-72
2022/02/14 10:42:35;;;;;;;19.00;10.90;;;;;;;6.07;58.12;98288.52;105887;1280;22554;-72
2022/02/14 10:45:11;;;;;;;18.60;10.20;;;;;;;6.18;57.92;98290.30;106172;1280;23939;-72
2022/02/14 10:47:44;;;;;;;19.30;10.80;;;;;;;6.27;57.42;98284.16;107138;1280;22617;-73
2022/02/14 10:50:13;;;;;;;17.60;9.30;;;;;;;6.36;56.77;98280.13;106241;1280;23334;-72
2022/02/14 10:52:56;;;;;;;17.90;10.10;;;;;;;6.45;56.61;98275.50;107026;1280;22604;-72
2022/02/14 10:55:30;;;;;;;20.50;11.90;;;;;;;6.56;56.58;98272.46;106551;1280;24260;-73
2022/02/14 10:58:00;;;;;;;17.30;10.40;;;;;;;6.66;55.88;98273.26;106249;1279;22585;-72
2022/02/14 11:00:30;;;;;;;20.10;11.30;;;;;;;6.75;55.12;98265.95;105897;1279;23170;-72
2022/02/14 11:03:06;;;;;;;21.30;9.70;;;;;;;6.84;55.01;98268.10;106067;1279;22569;-72
2022/02/14 11:05:34;;;;;;;19.00;9.20;;;;;;;6.92;54.59;98265.46;105875;1281;22550;-72
2022/02/14 11:08:01;;;;;;;18.50;8.90;;;;;;;7.01;54.82;98266.61;105759;1281;23452;-72
2022/02/14 11:10:29;;;;;;;14.10;8.90;;;;;;;7.09;54.19;98264.61;105963;1280;23678;-71
2022/02/14 11:12:58;;;;;;;17.40;9.50;;;;;;;7.16;53.49;98261.22;105850;1280;22564;-71
2022/02/14 11:15:35;;;;;;;16.60;8.90;;;;;;;7.21;53.29;98254.29;105868;1280;22560;-71
2022/02/14 11:18:23;;;;;;;14.70;9.30;;;;;;;7.28;53.11;98254.36;105890;1280;25265;-70